Time;durP1;ratioP1;P1;durP2;ratioP2;P2;SDS_P1;SDS_P2;PMS_P1;PMS_P2;Temp;Humidity;BMP_temperature;BMP_pressure;BME280_temperature;BME280_humidity;BME280_pressure;Samples;Min_cycle;Max_cycle;Signal;HPM_P1;HPM_P2
2021/07/10 03:55:02;;;;;;;;;;;;;;;;;;;;;
2021/07/10 04:08:59;;;;;;;12.10;8.48;;;16.80;77.60;;;;;;6383598;21;20087;-84
2021/07/10 04:38:55;;;;;;;;;;;;;;;;;;;;;
2021/07/10 06:59:02;;;;;;;16.38;8.63;;;17.40;78.30;;;;;;5103805;27;20121;-27
2021/07/10 07:01:30;;;;;;;15.57;7.90;;;17.80;78.20;;;;;;5109895;28;20044;-31
2021/07/10 07:03:57;;;;;;;19.92;9.10;;;18.10;78.00;;;;;;4977191;27;20410;-30
2021/07/10 07:06:24;;;;;;;13.70;7.50;;;18.50;77.50;;;;;;4873765;27;20041;-31
2021/07/10 07:08:55;;;;;;;18.10;7.53;;;18.90;76.90;;;;;;4876751;28;58235;-31
2021/07/10 07:11:22;;;;;;;11.35;6.95;;;19.40;76.10;;;;;;5030545;28;20076;-31
2021/07/10 07:13:50;;;;;;;20.38;6.60;;;19.70;75.30;;;;;;5055431;28;20549;-32
2021/07/10 10:04:23;;;;;;;9.27;5.70;;;17.80;82.40;;;;;;4910065;27;20120;-64
2021/07/10 10:06:51;;;;;;;16.90;5.80;;;17.90;82.10;;;;;;4970833;28;20049;-64
2021/07/10 10:09:21;;;;;;;18.05;5.80;;;18.10;81.60;;;;;;4904128;28;77442;-64
2021/07/10 10:11:57;;;;;;;11.63;5.28;;;18.40;81.00;;;;;;5052349;28;20064;-64
2021/07/10 10:14:26;;;;;;;12.25;4.88;;;18.60;80.30;;;;;;5048404;28;20454;-64
2021/07/10 10:16:55;;;;;;;10.60;4.65;;;18.80;79.60;;;;;;5049013;28;20045;-65
2021/07/10 10:19:25;;;;;;;11.73;4.72;;;18.90;79.00;;;;;;5048941;28;20064;-63
2021/07/10 10:21:56;;;;;;;10.20;4.97;;;19.10;78.50;;;;;;5048226;28;20047;-65
2021/07/10 10:24:24;;;;;;;14.70;4.72;;;19.30;78.00;;;;;;5048956;28;20055;-64
2021/07/10 10:26:52;;;;;;;12.63;4.10;;;19.40;77.60;;;;;;5048864;28;20491;-64
2021/07/10 10:29:22;;;;;;;8.40;4.20;;;19.50;77.10;;;;;;5048508;28;20053;-64
2021/07/10 10:31:49;;;;;;;7.85;4.40;;;19.60;76.70;;;;;;5048427;28;20069;-64
2021/07/10 10:34:17;;;;;;;8.63;3.67;;;19.70;76.30;;;;;;5019315;28;20052;-63
2021/07/10 10:36:47;;;;;;;9.68;4.40;;;19.80;76.00;;;;;;5000827;28;20049;-73
2021/07/10 10:39:35;;;;;;;7.38;4.07;;;19.90;75.50;;;;;;5019170;27;20128;-93
2021/07/10 11:28:34;;;;;;;11.07;7.03;;;19.20;78.60;;;;;;5063388;27;20120;-86
2021/07/10 11:31:05;;;;;;;10.27;6.80;;;19.30;78.60;;;;;;5091405;28;20052;-85
2021/07/10 11:34:00;;;;;;;11.23;6.80;;;19.40;78.40;;;;;;5091849;28;20059;-84
2021/07/10 11:36:31;;;;;;;16.40;7.30;;;19.40;78.30;;;;;;5091741;28;20056;-85
2021/07/10 11:39:02;;;;;;;12.13;7.50;;;19.30;78.40;;;;;;5082960;28;20075;-86
2021/07/10 11:41:32;;;;;;;11.27;7.50;;;19.20;78.70;;;;;;5092075;28;20131;-81
2021/07/10 11:44:16;;;;;;;12.30;7.28;;;19.20;78.90;;;;;;5109138;28;20483;-87
2021/07/10 11:47:01;;;;;;;10.57;6.95;;;19.10;79.10;;;;;;5080279;28;20493;-83
2021/07/10 11:49:39;;;;;;;13.15;7.68;;;19.10;79.30;;;;;;5068242;28;20053;-86
2021/07/10 11:52:19;;;;;;;11.52;7.28;;;19.10;79.30;;;;;;5084478;28;20045;-85
2021/07/10 11:54:50;;;;;;;11.95;6.80;;;19.10;79.30;;;;;;5084580;28;20049;-85
2021/07/10 11:57:18;;;;;;;13.00;7.53;;;19.00;78.90;;;;;;5083888;28;20053;-85
2021/07/10 11:59:45;;;;;;;10.80;7.05;;;19.00;79.00;;;;;;5083861;28;20059;-84
2021/07/10 12:02:27;;;;;;;12.85;6.97;;;19.00;78.60;;;;;;5068937;28;20045;-84
2021/07/10 12:05:14;;;;;;;11.52;7.35;;;19.00;78.60;;;;;;5082039;28;20517;-83
2021/07/10 12:07:44;;;;;;;13.85;7.45;;;19.00;78.70;;;;;;5084067;28;20045;-85
2021/07/10 12:10:23;;;;;;;9.52;6.78;;;19.00;78.60;;;;;;5051069;28;20049;-84
2021/07/10 12:12:56;;;;;;;11.27;7.45;;;19.00;78.60;;;;;;5083949;28;20072;-84
2021/07/10 12:15:30;;;;;;;10.95;6.65;;;18.90;78.40;;;;;;5096689;28;20052;-84
2021/07/10 12:18:00;;;;;;;12.70;6.78;;;19.00;78.30;;;;;;5104187;28;20531;-85
2021/07/10 12:20:31;;;;;;;13.75;7.03;;;18.90;78.40;;;;;;5088362;28;20135;-84
2021/07/10 12:23:05;;;;;;;14.93;7.10;;;18.90;78.50;;;;;;5104057;28;20122;-84
2021/07/10 12:25:33;;;;;;;;;;;18.90;78.80;;;;;;5104858;28;20394;-84
2021/07/10 12:28:03;;;;;;;12.85;7.00;;;18.90;78.90;;;;;;5084871;28;19920;-86
2021/07/10 12:30:39;;;;;;;10.00;6.38;;;18.90;79.00;;;;;;5070454;28;20044;-84
2021/07/10 12:33:28;;;;;;;11.10;7.22;;;18.90;79.20;;;;;;5088045;28;20446;-85
2021/07/10 12:36:03;;;;;;;15.48;7.20;;;18.90;79.30;;;;;;5069604;28;20045;-85
2021/07/10 12:38:31;;;;;;;13.48;7.35;;;18.90;79.40;;;;;;5060467;28;20127;-83
2021/07/10 12:41:18;;;;;;;11.98;7.97;;;18.90;79.60;;;;;;5056504;28;20068;-86
2021/07/10 12:43:46;;;;;;;14.35;7.95;;;18.90;79.80;;;;;;5056089;28;20048;-84
2021/07/10 12:46:13;;;;;;;12.23;6.20;;;18.90;79.90;;;;;;5064629;28;20059;-84
2021/07/10 12:48:41;;;;;;;6.75;4.28;;;18.90;79.80;;;;;;5073386;28;20048;-85
2021/07/10 12:51:08;;;;;;;7.25;4.25;;;18.90;79.70;;;;;;5056417;28;20063;-84
2021/07/10 12:53:37;;;;;;;9.82;4.00;;;18.90;79.10;;;;;;5074837;28;20413;-85
2021/07/10 12:56:41;;;;;;;6.28;3.65;;;18.80;78.80;;;;;;5074519;28;20045;-85
2021/07/10 12:59:17;;;;;;;5.95;3.28;;;18.80;78.50;;;;;;5056650;28;20051;-85
2021/07/10 13:01:51;;;;;;;10.82;2.58;;;18.70;78.00;;;;;;5056523;28;20054;-84
2021/07/10 13:04:21;;;;;;;;;;;18.60;77.90;;;;;;5057227;28;20166;-85
2021/07/10 13:06:48;;;;;;;9.30;3.70;;;18.50;78.10;;;;;;5063703;28;19927;-85
2021/07/10 13:09:15;;;;;;;8.60;3.38;;;18.40;78.20;;;;;;5045590;28;20048;-85
2021/07/10 13:11:47;;;;;;;7.43;3.42;;;18.40;78.50;;;;;;5084821;28;20205;-85
2021/07/10 13:14:23;;;;;;;6.75;3.58;;;18.30;78.70;;;;;;5054036;28;20057;-86
2021/07/10 13:16:51;;;;;;;9.88;4.15;;;18.30;79.00;;;;;;5052715;28;20052;-84
2021/07/10 13:19:32;;;;;;;7.35;4.40;;;18.20;79.10;;;;;;5053049;28;20060;-84
2021/07/10 13:22:03;;;;;;;9.05;4.07;;;18.20;79.30;;;;;;5052974;28;20044;-85
2021/07/10 13:24:30;;;;;;;9.10;4.30;;;18.20;79.40;;;;;;5063281;28;20053;-86
2021/07/10 13:26:57;;;;;;;12.57;4.50;;;18.20;79.60;;;;;;5055830;28;20140;-86
2021/07/10 13:29:31;;;;;;;7.82;4.20;;;18.20;79.70;;;;;;5056092;28;20131;-85
2021/07/10 13:32:00;;;;;;;11.25;4.03;;;18.20;79.90;;;;;;5056001;28;20075;-85
2021/07/10 13:34:33;;;;;;;6.65;3.92;;;18.20;80.10;;;;;;5056258;28;20052;-85
2021/07/10 13:37:12;;;;;;;6.65;3.95;;;18.20;80.20;;;;;;5056124;28;20080;-91
2021/07/10 13:39:42;;;;;;;11.07;4.47;;;18.20;80.20;;;;;;5055281;28;20429;-85
2021/07/10 13:42:13;;;;;;;11.50;4.55;;;18.20;80.60;;;;;;5055960;28;20130;-85
2021/07/10 13:44:43;;;;;;;8.05;4.43;;;18.30;80.90;;;;;;5055920;28;20050;-85
2021/07/10 13:47:20;;;;;;;9.88;4.88;;;18.40;81.00;;;;;;5055635;28;20119;-84
2021/07/10 13:49:54;;;;;;;7.95;3.80;;;18.40;81.30;;;;;;5054251;28;20052;-85
2021/07/10 13:52:27;;;;;;;6.23;4.17;;;18.40;81.50;;;;;;5071960;28;20505;-84
2021/07/10 13:54:59;;;;;;;5.65;3.60;;;18.50;81.60;;;;;;5055933;28;20068;-84
2021/07/10 13:57:30;;;;;;;5.65;3.45;;;18.60;81.70;;;;;;5055222;28;20052;-85
2021/07/10 13:59:57;;;;;;;6.93;3.75;;;18.60;81.40;;;;;;5031192;28;20102;-88
2021/07/10 14:02:27;;;;;;;7.80;3.30;;;18.60;81.20;;;;;;5071690;28;20429;-88
2021/07/10 14:05:04;;;;;;;5.40;3.20;;;18.70;81.10;;;;;;5072243;28;20083;-84
2021/07/10 14:07:33;;;;;;;5.18;3.00;;;18.70;81.10;;;;;;5071550;28;20055;-85
2021/07/10 14:10:00;;;;;;;7.00;3.83;;;18.70;81.00;;;;;;5080067;28;20041;-89
2021/07/10 14:12:29;;;;;;;7.47;3.58;;;18.70;80.80;;;;;;5026389;28;20514;-86
2021/07/10 14:14:57;;;;;;;5.47;3.38;;;18.70;80.50;;;;;;5035286;28;20579;-88
2021/07/10 14:17:24;;;;;;;7.72;3.20;;;18.70;80.40;;;;;;5035060;28;20485;-87
2021/07/10 14:19:52;;;;;;;8.30;3.22;;;18.60;80.20;;;;;;5035631;28;20132;-87
2021/07/10 14:22:19;;;;;;;16.75;3.22;;;18.60;80.20;;;;;;5039456;28;20531;-85
2021/07/10 14:24:47;;;;;;;5.60;3.38;;;18.60;80.10;;;;;;5071694;28;20516;-86
2021/07/10 14:27:14;;;;;;;5.50;3.05;;;18.60;80.00;;;;;;5055379;28;20084;-89
2021/07/10 14:29:41;;;;;;;8.88;2.63;;;18.60;80.40;;;;;;5072508;28;20048;-89
2021/07/10 14:32:08;;;;;;;4.80;2.97;;;18.60;80.40;;;;;;5073650;28;20124;-87
2021/07/10 14:34:35;;;;;;;5.85;3.40;;;18.60;80.40;;;;;;5072524;28;20048;-88
2021/07/10 14:37:03;;;;;;;8.80;3.67;;;18.60;80.80;;;;;;5072356;28;20504;-88
2021/07/10 14:39:30;;;;;;;6.20;3.50;;;18.60;81.10;;;;;;5073132;28;20087;-87
2021/07/10 14:41:57;;;;;;;6.53;3.25;;;18.70;81.30;;;;;;5072132;28;20052;-87
2021/07/10 14:44:33;;;;;;;6.75;3.30;;;18.70;81.50;;;;;;5055612;28;20052;-90
2021/07/10 14:47:19;;;;;;;;;;;;;;;;;;;;;
2021/07/10 14:49:47;;;;;;;4.90;2.60;;;18.80;81.40;;;;;;4993953;28;20569;-86
2021/07/10 14:52:14;;;;;;;4.72;2.40;;;18.90;81.40;;;;;;4992809;28;20053;-87
2021/07/10 14:54:41;;;;;;;5.70;2.40;;;18.90;81.10;;;;;;4992579;28;20058;-86
2021/07/10 14:57:09;;;;;;;5.50;2.13;;;18.90;80.90;;;;;;4992674;28;20415;-87
2021/07/10 14:59:37;;;;;;;5.07;2.20;;;19.00;80.90;;;;;;4992519;28;20401;-87
2021/07/10 15:02:06;;;;;;;4.03;2.10;;;19.00;80.80;;;;;;4992575;28;20076;-86
2021/07/10 15:04:33;;;;;;;6.50;2.10;;;19.00;80.80;;;;;;4992730;28;20056;-87
2021/07/10 15:07:00;;;;;;;4.05;2.00;;;19.10;80.80;;;;;;4992689;28;20065;-86
2021/07/10 15:09:28;;;;;;;10.80;1.75;;;19.20;80.80;;;;;;4998371;28;20046;-88
2021/07/10 15:11:56;;;;;;;4.63;1.88;;;19.30;80.70;;;;;;5012212;28;20121;-88
2021/07/10 15:14:26;;;;;;;4.72;2.25;;;19.30;80.50;;;;;;5011996;28;20046;-86
2021/07/10 15:16:53;;;;;;;6.65;1.77;;;19.40;80.10;;;;;;5011963;28;20049;-86
2021/07/10 15:19:25;;;;;;;2.75;1.50;;;19.40;80.00;;;;;;5011958;28;20049;-87
2021/07/10 15:21:52;;;;;;;6.95;1.50;;;19.50;79.80;;;;;;5011745;28;20626;-87
2021/07/10 15:24:19;;;;;;;4.13;1.60;;;19.50;79.10;;;;;;5013379;28;20406;-86
2021/07/10 15:26:46;;;;;;;5.90;1.58;;;19.50;78.60;;;;;;5012288;28;20486;-87
2021/07/10 15:29:13;;;;;;;3.90;1.35;;;19.50;78.40;;;;;;5011837;28;20050;-87
2021/07/10 15:31:40;;;;;;;1.95;1.00;;;19.50;78.20;;;;;;5012160;28;20053;-88
2021/07/10 15:34:08;;;;;;;2.42;1.10;;;19.60;77.90;;;;;;5012136;28;20053;-84
2021/07/10 15:36:35;;;;;;;2.47;1.30;;;19.60;77.50;;;;;;5012830;28;20046;-87
2021/07/10 15:39:04;;;;;;;2.28;1.10;;;19.60;77.20;;;;;;5011919;28;20091;-85
2021/07/10 15:41:32;;;;;;;3.63;1.10;;;19.60;76.80;;;;;;5011825;28;20483;-85
2021/07/10 15:43:59;;;;;;;2.35;1.00;;;19.60;76.80;;;;;;5012809;28;20073;-85
2021/07/10 15:46:27;;;;;;;2.17;1.23;;;19.60;76.10;;;;;;5012486;28;20061;-84
2021/07/10 15:48:55;;;;;;;3.58;1.27;;;19.60;75.70;;;;;;5027613;28;20053;-85
2021/07/10 15:51:22;;;;;;;2.88;0.82;;;19.60;75.70;;;;;;5028069;28;20072;-88
2021/07/10 15:53:49;;;;;;;2.25;1.10;;;19.60;75.40;;;;;;5028237;28;20130;-85
2021/07/10 15:56:17;;;;;;;2.58;1.15;;;19.60;75.00;;;;;;5012831;28;20521;-85
2021/07/10 15:58:44;;;;;;;2.42;1.15;;;19.60;75.20;;;;;;5012760;28;20050;-86
2021/07/10 16:01:11;;;;;;;2.90;1.15;;;19.60;75.20;;;;;;5027941;28;20052;-85
2021/07/10 16:03:38;;;;;;;3.15;1.30;;;19.60;75.10;;;;;;5027843;28;20053;-86
2021/07/10 16:06:05;;;;;;;3.42;1.20;;;19.60;74.80;;;;;;5011380;28;20076;-85
2021/07/10 16:08:32;;;;;;;3.63;1.10;;;19.60;74.80;;;;;;5012630;28;20049;-85
2021/07/10 16:11:00;;;;;;;5.28;1.10;;;19.60;74.70;;;;;;5024324;28;20065;-86
2021/07/10 16:13:26;;;;;;;1.52;1.00;;;19.60;74.60;;;;;;5012498;28;20041;-85
2021/07/10 16:15:54;;;;;;;3.70;1.10;;;19.60;74.70;;;;;;5016261;28;20137;-83
2021/07/10 16:18:21;;;;;;;2.10;0.98;;;19.50;74.50;;;;;;5016518;28;20427;-86
2021/07/10 16:20:48;;;;;;;3.17;1.17;;;19.50;74.50;;;;;;5031099;28;20419;-85
2021/07/10 16:23:15;;;;;;;3.33;1.25;;;19.50;74.50;;;;;;5014848;28;20046;-84
2021/07/10 16:25:42;;;;;;;5.78;2.00;;;19.50;74.70;;;;;;5016029;28;20064;-84
2021/07/10 16:28:09;;;;;;;3.60;2.13;;;19.50;75.00;;;;;;5031285;28;20052;-84
2021/07/10 16:30:37;;;;;;;7.03;2.63;;;19.50;75.30;;;;;;5031227;28;20057;-84
2021/07/10 16:33:04;;;;;;;4.18;2.30;;;19.40;75.30;;;;;;5015978;28;20408;-86
2021/07/10 16:35:31;;;;;;;4.32;2.00;;;19.50;75.50;;;;;;5031209;28;20054;-85
2021/07/10 16:37:59;;;;;;;6.07;2.40;;;19.40;75.70;;;;;;5016064;28;20521;-84
2021/07/10 16:40:26;;;;;;;6.47;1.98;;;19.40;75.80;;;;;;5031016;28;20045;-84
2021/07/10 16:42:54;;;;;;;3.78;1.77;;;19.40;75.90;;;;;;5031462;28;20073;-83
2021/07/10 16:45:30;;;;;;;3.17;1.90;;;19.40;76.00;;;;;;5029720;28;20104;-83
2021/07/10 16:47:58;;;;;;;5.85;1.77;;;19.40;75.80;;;;;;5030427;28;20048;-84
2021/07/10 16:50:25;;;;;;;4.90;1.75;;;19.40;75.30;;;;;;5030778;28;20526;-84
2021/07/10 16:52:52;;;;;;;4.13;1.95;;;19.40;75.00;;;;;;5030967;28;20075;-84
2021/07/10 16:55:19;;;;;;;6.88;1.60;;;19.30;75.10;;;;;;5015589;28;20050;-84
2021/07/10 16:57:46;;;;;;;3.67;1.70;;;19.30;74.90;;;;;;5015810;28;20414;-84
2021/07/10 17:00:21;;;;;;;3.08;1.55;;;19.20;74.50;;;;;;5015790;28;20415;-84
2021/07/10 17:02:48;;;;;;;6.35;1.80;;;19.20;74.50;;;;;;5030745;28;20523;-84
2021/07/10 17:05:16;;;;;;;4.63;2.08;;;19.10;74.80;;;;;;5030813;28;20056;-83
2021/07/10 17:07:45;;;;;;;2.85;1.70;;;19.10;74.90;;;;;;5030623;28;20177;-83
2021/07/10 17:10:15;;;;;;;3.10;1.70;;;19.10;75.10;;;;;;5010905;28;20050;-84
2021/07/10 17:12:43;;;;;;;5.07;1.52;;;19.00;75.30;;;;;;5000611;28;20525;-83
2021/07/10 17:15:11;;;;;;;3.60;1.80;;;19.00;75.40;;;;;;5030804;28;20053;-85
2021/07/10 17:17:41;;;;;;;5.65;1.60;;;19.00;75.60;;;;;;5015294;28;20061;-84
2021/07/10 17:20:10;;;;;;;5.93;2.15;;;19.00;75.60;;;;;;5015463;28;20380;-84
2021/07/10 17:22:38;;;;;;;4.15;1.90;;;19.00;75.50;;;;;;5030417;28;20077;-83
2021/07/10 17:25:07;;;;;;;3.90;2.30;;;19.00;75.40;;;;;;5030528;28;20046;-82
2021/07/10 17:27:34;;;;;;;3.72;2.00;;;19.00;75.30;;;;;;5030346;28;20418;-86
2021/07/10 17:30:06;;;;;;;4.60;2.15;;;18.90;75.30;;;;;;5030241;28;20050;-83
2021/07/10 17:32:33;;;;;;;4.40;2.10;;;18.90;75.40;;;;;;5029869;28;20525;-84
2021/07/10 17:35:01;;;;;;;7.35;2.28;;;18.90;75.30;;;;;;5015023;28;20046;-83
2021/07/10 17:37:28;;;;;;;3.75;2.10;;;18.90;75.30;;;;;;5014847;28;20049;-83
2021/07/10 17:39:56;;;;;;;5.45;2.17;;;18.80;75.10;;;;;;5014810;28;20068;-84
2021/07/10 17:42:23;;;;;;;5.00;2.17;;;18.80;75.10;;;;;;5013469;28;20412;-83
2021/07/10 17:44:50;;;;;;;4.35;2.00;;;18.80;75.20;;;;;;5014651;28;20054;-83
2021/07/10 17:47:17;;;;;;;5.25;2.70;;;18.70;75.20;;;;;;5013752;28;20054;-83
2021/07/10 17:49:44;;;;;;;4.65;2.10;;;18.70;75.20;;;;;;5014553;28;20077;-84
2021/07/10 17:52:11;;;;;;;3.78;2.22;;;18.60;75.50;;;;;;5013540;28;20046;-84
2021/07/10 17:54:38;;;;;;;12.05;2.28;;;18.60;75.40;;;;;;5014412;28;20061;-83
2021/07/10 17:57:05;;;;;;;6.25;2.20;;;18.60;75.40;;;;;;5013410;28;20076;-83
2021/07/10 17:59:32;;;;;;;3.47;1.98;;;18.60;75.40;;;;;;5014597;28;20062;-83
2021/07/10 18:02:00;;;;;;;4.63;2.05;;;18.50;75.50;;;;;;5029432;28;20054;-83
2021/07/10 18:04:27;;;;;;;6.10;2.30;;;18.50;75.60;;;;;;5013082;28;20050;-83
2021/07/10 18:06:55;;;;;;;6.45;2.40;;;18.40;75.80;;;;;;5029718;28;20050;-84
2021/07/10 18:09:23;;;;;;;5.03;2.05;;;18.40;75.90;;;;;;5012837;28;20129;-84
2021/07/10 18:11:51;;;;;;;4.22;2.20;;;18.40;75.90;;;;;;5029325;28;20050;-83
2021/07/10 18:14:18;;;;;;;3.97;2.35;;;18.40;76.00;;;;;;5014167;28;20426;-83
2021/07/10 18:16:46;;;;;;;4.07;2.20;;;18.40;76.00;;;;;;5013797;28;20054;-83
2021/07/10 18:19:13;;;;;;;4.40;2.65;;;18.40;75.70;;;;;;5012978;28;20053;-82
2021/07/10 18:21:41;;;;;;;5.35;2.78;;;18.30;75.70;;;;;;5014046;28;20056;-83
2021/07/10 18:24:08;;;;;;;5.28;2.75;;;18.30;75.80;;;;;;5012850;28;20045;-83
2021/07/10 18:26:35;;;;;;;5.47;2.47;;;18.20;76.00;;;;;;5012582;28;20510;-83
2021/07/10 18:29:02;;;;;;;9.48;2.72;;;18.20;76.10;;;;;;5012749;28;20510;-83
2021/07/10 18:31:29;;;;;;;6.22;2.97;;;18.20;76.30;;;;;;5012612;28;20042;-84
2021/07/10 18:33:57;;;;;;;5.57;2.75;;;18.20;76.50;;;;;;5012561;28;20472;-83
2021/07/10 18:36:24;;;;;;;8.82;3.15;;;18.10;76.60;;;;;;5012101;28;20061;-82
2021/07/10 18:38:52;;;;;;;6.32;3.08;;;18.10;76.80;;;;;;5012491;28;20578;-83
2021/07/10 18:41:19;;;;;;;9.77;3.13;;;18.10;76.80;;;;;;5013565;28;20049;-83
2021/07/10 18:43:47;;;;;;;5.93;3.60;;;18.10;76.80;;;;;;5012796;28;20054;-83
2021/07/10 18:46:14;;;;;;;9.32;3.30;;;18.10;76.80;;;;;;5012074;28;20141;-83
2021/07/10 18:48:41;;;;;;;6.90;3.08;;;18.10;76.90;;;;;;5028162;28;20057;-83
2021/07/10 18:51:09;;;;;;;7.18;3.25;;;18.10;76.90;;;;;;5029029;28;20054;-83
2021/07/10 18:53:36;;;;;;;5.47;2.88;;;18.00;76.90;;;;;;5013893;28;20046;-83
2021/07/10 18:56:03;;;;;;;6.00;3.13;;;18.10;77.00;;;;;;5013462;28;20104;-83
2021/07/10 18:58:33;;;;;;;5.22;3.03;;;18.00;77.00;;;;;;5013342;28;20058;-83
2021/07/10 19:01:00;;;;;;;12.82;3.28;;;18.00;76.90;;;;;;5028414;28;20046;-83
2021/07/10 19:03:28;;;;;;;7.97;3.35;;;17.90;76.90;;;;;;5028700;28;20050;-83
2021/07/10 19:05:55;;;;;;;8.63;3.55;;;18.00;76.90;;;;;;5013278;28;20058;-84
2021/07/10 19:08:22;;;;;;;9.52;2.75;;;17.90;76.90;;;;;;5012306;28;20200;-83
2021/07/10 19:10:49;;;;;;;7.88;2.58;;;17.90;76.90;;;;;;5012999;28;20494;-84
2021/07/10 19:13:19;;;;;;;6.65;3.10;;;17.90;77.00;;;;;;5027911;28;20130;-85
2021/07/10 19:15:47;;;;;;;9.50;2.90;;;17.90;77.10;;;;;;5011968;28;20483;-84
2021/07/10 19:18:14;;;;;;;11.00;3.15;;;17.80;77.10;;;;;;5011880;28;20418;-83
2021/07/10 19:20:41;;;;;;;12.32;3.28;;;17.80;77.20;;;;;;5013084;28;20488;-83
2021/07/10 19:23:08;;;;;;;8.35;2.72;;;17.80;77.20;;;;;;5011928;28;20046;-83
2021/07/10 19:25:35;;;;;;;8.82;3.40;;;17.70;77.30;;;;;;5011910;28;20042;-83
2021/07/10 19:28:03;;;;;;;5.70;2.85;;;17.70;77.40;;;;;;5028006;28;20137;-83
2021/07/10 19:30:30;;;;;;;7.78;2.70;;;17.60;77.50;;;;;;5028066;28;20065;-83
2021/07/10 19:32:59;;;;;;;9.18;2.40;;;17.60;77.50;;;;;;5013143;28;20049;-84
2021/07/10 19:35:30;;;;;;;6.00;2.42;;;17.50;77.50;;;;;;5011775;28;20046;-83
2021/07/10 19:37:57;;;;;;;11.13;2.72;;;17.50;77.50;;;;;;5011889;28;20061;-84
2021/07/10 19:40:26;;;;;;;6.82;2.28;;;17.50;77.40;;;;;;5013014;28;20192;-83
2021/07/10 19:42:53;;;;;;;5.07;2.85;;;17.40;77.40;;;;;;5012753;28;20057;-83
2021/07/10 19:45:20;;;;;;;5.20;2.30;;;17.40;77.40;;;;;;5011485;28;20050;-84
2021/07/10 19:47:48;;;;;;;9.38;2.85;;;17.40;77.40;;;;;;5011759;28;20054;-84
2021/07/10 19:50:23;;;;;;;4.88;2.40;;;17.30;77.50;;;;;;5016547;28;20046;-83
2021/07/10 19:52:52;;;;;;;5.82;2.90;;;17.30;77.50;;;;;;5016892;28;20050;-83
2021/07/10 19:55:20;;;;;;;7.68;2.80;;;17.30;77.60;;;;;;5032185;28;20049;-83
2021/07/10 19:57:48;;;;;;;8.00;2.80;;;17.20;77.60;;;;;;5016313;28;20133;-84
2021/07/10 20:00:19;;;;;;;7.68;2.95;;;17.20;77.60;;;;;;5032041;28;20057;-84
2021/07/10 20:02:47;;;;;;;7.22;2.63;;;17.10;77.70;;;;;;5014544;28;20060;-83
2021/07/10 20:05:15;;;;;;;4.10;2.35;;;17.10;77.70;;;;;;5000075;28;20068;-85
2021/07/10 20:07:44;;;;;;;6.65;2.70;;;17.10;77.70;;;;;;5030727;28;20054;-83
2021/07/10 20:10:18;;;;;;;9.15;2.60;;;17.10;77.70;;;;;;5030386;28;20042;-82
2021/07/10 20:12:46;;;;;;;12.60;2.65;;;17.00;77.70;;;;;;4988588;28;20061;-83
2021/07/10 20:15:14;;;;;;;6.72;2.00;;;16.90;77.70;;;;;;5020293;28;20053;-83
2021/07/10 20:17:41;;;;;;;6.13;2.50;;;16.90;77.70;;;;;;5014434;28;20050;-83
2021/07/10 20:20:10;;;;;;;7.47;2.83;;;16.90;77.70;;;;;;5015199;28;20054;-82
2021/07/10 20:22:38;;;;;;;16.08;2.55;;;16.80;77.70;;;;;;4999780;28;20050;-83
2021/07/10 20:25:07;;;;;;;7.35;2.50;;;16.80;77.70;;;;;;5010919;28;20051;-83
2021/07/10 20:27:34;;;;;;;5.63;2.58;;;16.80;77.70;;;;;;5010342;28;20054;-83
2021/07/10 20:30:02;;;;;;;13.35;2.53;;;16.70;77.70;;;;;;5010873;28;20054;-83
2021/07/10 20:32:29;;;;;;;10.98;2.30;;;16.70;77.70;;;;;;5010702;28;20056;-82
2021/07/10 20:34:56;;;;;;;6.38;2.15;;;16.60;77.80;;;;;;5010405;28;20488;-83
2021/07/10 20:37:23;;;;;;;6.05;2.10;;;16.60;77.90;;;;;;5010287;28;20484;-84
2021/07/10 20:39:50;;;;;;;5.72;2.33;;;16.60;77.90;;;;;;4995494;28;20050;-84
2021/07/10 20:42:18;;;;;;;7.63;2.25;;;16.50;77.90;;;;;;5010451;28;20062;-83
2021/07/10 20:44:45;;;;;;;8.02;2.45;;;16.50;77.90;;;;;;5010757;28;20074;-82
2021/07/10 20:47:12;;;;;;;11.98;2.35;;;16.50;77.90;;;;;;4999672;28;20068;-83
2021/07/10 20:49:39;;;;;;;8.57;2.50;;;16.40;77.90;;;;;;5029674;28;20052;-81
2021/07/10 20:52:06;;;;;;;12.85;2.63;;;16.40;77.80;;;;;;5029716;28;20052;-83
2021/07/10 20:54:33;;;;;;;11.98;2.63;;;16.40;77.80;;;;;;5014529;28;20050;-83
2021/07/10 20:57:00;;;;;;;7.45;2.80;;;16.40;77.90;;;;;;5013033;28;20056;-82
2021/07/10 20:59:27;;;;;;;7.90;2.60;;;16.30;77.90;;;;;;5013286;28;20054;-82
2021/07/10 21:01:54;;;;;;;4.78;2.30;;;16.30;78.00;;;;;;5030163;28;20411;-84
2021/07/10 21:04:21;;;;;;;13.52;2.50;;;16.20;78.00;;;;;;5003804;28;20439;-82
2021/07/10 21:06:49;;;;;;;9.68;2.63;;;16.20;77.80;;;;;;5014373;28;20053;-82
2021/07/10 21:09:16;;;;;;;8.38;2.38;;;16.20;77.80;;;;;;5029741;28;20062;-83
2021/07/10 21:11:49;;;;;;;7.22;2.45;;;16.10;77.70;;;;;;5014344;28;20050;-83
2021/07/10 21:14:16;;;;;;;5.82;2.58;;;16.10;77.80;;;;;;5029571;28;20502;-82
2021/07/10 21:16:44;;;;;;;10.25;2.58;;;16.00;77.90;;;;;;5029375;28;20414;-81
2021/07/10 21:19:13;;;;;;;4.82;2.40;;;16.00;78.00;;;;;;5029039;28;20050;-82
2021/07/10 21:21:41;;;;;;;10.10;2.50;;;15.90;78.10;;;;;;5029398;28;20057;-82
2021/07/10 21:24:11;;;;;;;6.97;2.67;;;15.90;78.10;;;;;;5013868;28;20057;-82
2021/07/10 21:26:39;;;;;;;5.22;2.40;;;15.90;78.10;;;;;;5013912;28;20058;-81
2021/07/10 21:29:07;;;;;;;5.90;2.72;;;15.90;78.00;;;;;;5013941;28;20054;-82
2021/07/10 21:31:36;;;;;;;11.30;2.58;;;15.80;78.00;;;;;;5012857;28;20080;-81
2021/07/10 21:34:04;;;;;;;6.32;2.55;;;15.80;78.10;;;;;;5013579;28;20046;-81
2021/07/10 21:36:31;;;;;;;6.05;2.40;;;15.70;78.20;;;;;;5029213;28;20129;-82
2021/07/10 21:38:59;;;;;;;5.20;2.67;;;15.70;78.20;;;;;;5013851;28;20454;-81
2021/07/10 21:41:26;;;;;;;5.95;2.80;;;15.60;78.30;;;;;;5028922;28;20101;-81
2021/07/10 21:43:54;;;;;;;12.00;2.58;;;15.60;78.30;;;;;;5029063;28;20458;-82
2021/07/10 21:46:21;;;;;;;11.07;2.75;;;15.60;78.40;;;;;;5013666;28;20112;-82
2021/07/10 21:48:49;;;;;;;7.55;3.13;;;15.50;78.40;;;;;;5012074;28;20144;-81
2021/07/10 21:51:17;;;;;;;11.00;2.75;;;15.50;78.40;;;;;;5013236;28;20478;-82
2021/07/10 21:53:45;;;;;;;8.63;3.05;;;15.50;78.50;;;;;;5013593;28;20100;-82
2021/07/10 21:56:12;;;;;;;4.80;2.60;;;15.40;78.50;;;;;;5013194;28;20042;-81
2021/07/10 21:58:40;;;;;;;7.80;3.00;;;15.40;78.60;;;;;;5017443;28;20080;-82
2021/07/10 22:01:34;;;;;;;6.38;2.53;;;15.40;78.70;;;;;;4992919;28;20512;-82
2021/07/10 22:04:08;;;;;;;6.10;2.78;;;15.40;78.70;;;;;;4992260;28;20129;-82
2021/07/10 22:06:37;;;;;;;3.97;2.58;;;15.40;78.70;;;;;;5013217;28;20603;-83
2021/07/10 22:09:07;;;;;;;7.25;2.70;;;15.40;78.80;;;;;;5008567;28;20059;-82
2021/07/10 22:11:37;;;;;;;8.30;2.83;;;15.30;78.80;;;;;;5007693;28;20500;-84
2021/07/10 22:14:05;;;;;;;7.20;2.70;;;15.30;78.80;;;;;;4992655;28;20061;-83
2021/07/10 22:16:36;;;;;;;4.75;2.50;;;15.20;78.80;;;;;;4993498;28;20049;-83
2021/07/10 22:19:05;;;;;;;6.65;2.60;;;15.20;78.80;;;;;;5008138;28;20432;-83
2021/07/10 22:21:33;;;;;;;9.50;2.58;;;15.20;78.90;;;;;;5008622;28;20504;-82
2021/07/10 22:24:00;;;;;;;11.38;2.80;;;15.20;78.90;;;;;;5008288;28;20518;-83
2021/07/10 22:26:27;;;;;;;5.50;3.05;;;15.20;78.90;;;;;;4993080;28;20054;-82
2021/07/10 22:28:54;;;;;;;4.80;2.47;;;15.10;78.90;;;;;;4991652;28;20051;-84
2021/07/10 22:31:22;;;;;;;5.57;2.55;;;15.10;78.90;;;;;;5008398;28;20420;-83
2021/07/10 22:33:50;;;;;;;8.35;2.80;;;15.10;78.90;;;;;;4992816;28;20049;-82
2021/07/10 22:36:18;;;;;;;8.88;2.53;;;15.10;78.90;;;;;;5008465;28;20530;-83
2021/07/10 22:38:46;;;;;;;6.78;2.83;;;15.00;78.90;;;;;;4991977;28;20050;-84
2021/07/10 22:41:14;;;;;;;6.25;2.65;;;15.00;78.80;;;;;;4992734;28;20424;-82
2021/07/10 22:43:41;;;;;;;8.73;2.97;;;14.90;78.90;;;;;;5008581;28;20504;-83
2021/07/10 22:46:09;;;;;;;6.85;2.70;;;15.00;78.90;;;;;;5007811;28;20055;-83
2021/07/10 22:48:38;;;;;;;9.30;2.75;;;14.90;78.90;;;;;;4994159;28;20085;-82
2021/07/10 22:51:05;;;;;;;9.38;2.40;;;14.90;78.80;;;;;;5008987;28;20042;-82
2021/07/10 22:53:32;;;;;;;9.48;2.60;;;14.90;78.90;;;;;;5011614;28;20045;-83
2021/07/10 22:56:02;;;;;;;7.38;2.47;;;14.80;78.80;;;;;;5011109;28;20053;-83
2021/07/10 22:58:31;;;;;;;12.05;2.50;;;14.80;78.70;;;;;;5011272;28;20052;-84
2021/07/10 23:00:58;;;;;;;6.57;2.67;;;14.80;78.50;;;;;;5027193;28;20056;-83
2021/07/10 23:03:25;;;;;;;10.73;3.10;;;14.70;78.50;;;;;;5012395;28;20064;-83
2021/07/10 23:05:52;;;;;;;7.40;2.38;;;14.70;78.60;;;;;;5015678;28;20058;-83
2021/07/10 23:08:19;;;;;;;14.30;2.55;;;14.70;78.60;;;;;;4992175;28;20042;-83
2021/07/10 23:10:47;;;;;;;5.40;2.80;;;14.70;78.70;;;;;;4993781;28;20042;-83
2021/07/10 23:13:14;;;;;;;6.85;3.00;;;14.60;78.70;;;;;;4992916;28;20049;-83
2021/07/10 23:15:41;;;;;;;7.57;3.20;;;14.60;78.70;;;;;;4992795;28;20128;-82
2021/07/10 23:18:08;;;;;;;13.35;2.88;;;14.60;78.80;;;;;;4992581;28;20050;-84
2021/07/10 23:20:36;;;;;;;5.38;3.22;;;14.60;78.80;;;;;;4993685;28;20058;-83
2021/07/10 23:23:03;;;;;;;7.03;2.72;;;14.50;78.80;;;;;;4994044;28;20125;-83